sensor_id;sensor_type;location;lat;lon;timestamp;pressure;altitude;pressure_sealevel;temperature;humidity
11912;BME280;6016;41.928;25.556;2023-06-01T00:02:09;99133.66;;;19.20;79.95
11912;BME280;6016;41.928;25.556;2023-06-01T00:04:38;99134.28;;;19.22;79.84
11912;BME280;6016;41.928;25.556;2023-06-01T00:07:06;99134.91;;;19.24;80.11
11912;BME280;6016;41.928;25.556;2023-06-01T00:09:32;99082.19;;;18.89;79.59
11912;BME280;6016;41.928;25.556;2023-06-01T00:11:59;99139.06;;;19.26;79.48
11912;BME280;6016;41.928;25.556;2023-06-01T00:14:26;99143.78;;;19.24;79.28
11912;BME280;6016;41.928;25.556;2023-06-01T00:16:53;99143.72;;;19.18;79.13
11912;BME280;6016;41.928;25.556;2023-06-01T00:19:21;99148.22;;;19.17;78.75
11912;BME280;6016;41.928;25.556;2023-06-01T00:21:51;99151.94;;;19.16;79.36
11912;BME280;6016;41.928;25.556;2023-06-01T00:24:19;99149.22;;;19.09;79.28
11912;BME280;6016;41.928;25.556;2023-06-01T00:26:46;99146.72;;;19.08;79.54
11912;BME280;6016;41.928;25.556;2023-06-01T00:29:13;99141.78;;;19.05;79.91
11912;BME280;6016;41.928;25.556;2023-06-01T00:31:40;99144.66;;;19.03;79.86
11912;BME280;6016;41.928;25.556;2023-06-01T00:34:07;99081.38;;;18.60;80.05
11912;BME280;6016;41.928;25.556;2023-06-01T00:36:34;99125.25;;;18.73;79.97
11912;BME280;6016;41.928;25.556;2023-06-01T00:39:02;99150.19;;;19.02;80.42
11912;BME280;6016;41.928;25.556;2023-06-01T00:41:29;99109.84;;;18.75;80.16
11912;BME280;6016;41.928;25.556;2023-06-01T00:43:56;99090.53;;;18.51;79.86
11912;BME280;6016;41.928;25.556;2023-06-01T00:46:23;99147.88;;;18.98;80.51
11912;BME280;6016;41.928;25.556;2023-06-01T00:48:50;99141.53;;;19.00;80.19
11912;BME280;6016;41.928;25.556;2023-06-01T00:51:18;99123.50;;;18.87;80.28
11912;BME280;6016;41.928;25.556;2023-06-01T00:53:45;99139.22;;;18.96;80.48
11912;BME280;6016;41.928;25.556;2023-06-01T00:56:13;98996.00;;;18.02;80.52
11912;BME280;6016;41.928;25.556;2023-06-01T00:58:41;99140.03;;;18.97;80.30
11912;BME280;6016;41.928;25.556;2023-06-01T01:01:07;99156.69;;;18.99;80.01
11912;BME280;6016;41.928;25.556;2023-06-01T01:03:45;99148.91;;;18.97;79.92
11912;BME280;6016;41.928;25.556;2023-06-01T01:06:21;99124.69;;;18.77;80.31
11912;BME280;6016;41.928;25.556;2023-06-01T01:09:02;99142.06;;;18.95;79.62
11912;BME280;6016;41.928;25.556;2023-06-01T01:11:37;99152.97;;;18.93;79.69
11912;BME280;6016;41.928;25.556;2023-06-01T01:14:11;99153.34;;;18.90;79.67
11912;BME280;6016;41.928;25.556;2023-06-01T01:16:42;99155.84;;;18.92;79.36
11912;BME280;6016;41.928;25.556;2023-06-01T01:19:21;99135.38;;;18.77;79.14
11912;BME280;6016;41.928;25.556;2023-06-01T01:22:07;99104.56;;;18.60;79.22
11912;BME280;6016;41.928;25.556;2023-06-01T01:24:55;99094.34;;;18.41;79.12
11912;BME280;6016;41.928;25.556;2023-06-01T01:27:39;99158.47;;;18.85;79.37
11912;BME280;6016;41.928;25.556;2023-06-01T01:30:08;99128.44;;;18.61;79.18
11912;BME280;6016;41.928;25.556;2023-06-01T01:32:35;99153.69;;;18.80;79.28
11912;BME280;6016;41.928;25.556;2023-06-01T01:35:04;99112.91;;;18.50;78.57
11912;BME280;6016;41.928;25.556;2023-06-01T01:37:32;99154.88;;;18.78;78.96
11912;BME280;6016;41.928;25.556;2023-06-01T01:39:59;99123.84;;;18.55;78.72
11912;BME280;6016;41.928;25.556;2023-06-01T01:42:26;99155.06;;;18.76;78.69
11912;BME280;6016;41.928;25.556;2023-06-01T01:44:53;99161.44;;;18.75;78.70
11912;BME280;6016;41.928;25.556;2023-06-01T01:47:27;99141.53;;;18.56;78.90
11912;BME280;6016;41.928;25.556;2023-06-01T01:50:01;99112.59;;;18.38;78.39
11912;BME280;6016;41.928;25.556;2023-06-01T01:52:33;99156.59;;;18.64;78.75
11912;BME280;6016;41.928;25.556;2023-06-01T01:55:01;99126.88;;;18.30;79.19
11912;BME280;6016;41.928;25.556;2023-06-01T01:57:29;99156.59;;;18.42;78.65
11912;BME280;6016;41.928;25.556;2023-06-01T01:59:58;99154.28;;;18.39;78.86
11912;BME280;6016;41.928;25.556;2023-06-01T02:02:27;99164.75;;;18.55;78.24
11912;BME280;6016;41.928;25.556;2023-06-01T02:04:54;99170.28;;;18.54;78.25
11912;BME280;6016;41.928;25.556;2023-06-01T02:07:21;99160.59;;;18.53;78.54
11912;BME280;6016;41.928;25.556;2023-06-01T02:09:48;99098.88;;;18.04;78.53
11912;BME280;6016;41.928;25.556;2023-06-01T02:12:15;99166.84;;;18.38;77.12
11912;BME280;6016;41.928;25.556;2023-06-01T02:14:42;99152.84;;;18.36;77.16
11912;BME280;6016;41.928;25.556;2023-06-01T02:17:08;99176.50;;;18.39;77.37
11912;BME280;6016;41.928;25.556;2023-06-01T02:19:37;99076.66;;;17.67;77.40
11912;BME280;6016;41.928;25.556;2023-06-01T02:22:04;99176.59;;;18.31;77.64
11912;BME280;6016;41.928;25.556;2023-06-01T02:24:31;99177.63;;;18.30;78.11
11912;BME280;6016;41.928;25.556;2023-06-01T02:26:57;99170.19;;;18.25;77.24
11912;BME280;6016;41.928;25.556;2023-06-01T02:29:24;99168.56;;;18.09;78.18
11912;BME280;6016;41.928;25.556;2023-06-01T02:31:51;99169.38;;;18.25;77.53
11912;BME280;6016;41.928;25.556;2023-06-01T02:34:18;99169.53;;;18.23;77.82
11912;BME280;6016;41.928;25.556;2023-06-01T02:36:46;99121.91;;;17.90;77.90
11912;BME280;6016;41.928;25.556;2023-06-01T02:39:13;99170.56;;;18.22;77.86
11912;BME280;6016;41.928;25.556;2023-06-01T02:41:40;99169.75;;;18.22;77.29
11912;BME280;6016;41.928;25.556;2023-06-01T02:44:07;99156.88;;;18.10;77.98
11912;BME280;6016;41.928;25.556;2023-06-01T02:46:34;99169.09;;;18.20;77.86
11912;BME280;6016;41.928;25.556;2023-06-01T02:49:00;99122.09;;;17.74;77.87
11912;BME280;6016;41.928;25.556;2023-06-01T02:51:29;99168.66;;;18.16;77.64
11912;BME280;6016;41.928;25.556;2023-06-01T02:53:58;99175.81;;;18.16;77.61
11912;BME280;6016;41.928;25.556;2023-06-01T02:56:25;99177.00;;;18.13;77.92
11912;BME280;6016;41.928;25.556;2023-06-01T02:58:52;99182.47;;;18.05;78.21
11912;BME280;6016;41.928;25.556;2023-06-01T03:01:18;99179.59;;;18.06;77.96
11912;BME280;6016;41.928;25.556;2023-06-01T03:03:46;99115.75;;;17.75;77.70
11912;BME280;6016;41.928;25.556;2023-06-01T03:06:13;99026.53;;;17.10;77.40
11912;BME280;6016;41.928;25.556;2023-06-01T03:08:43;99180.16;;;18.02;77.64
11912;BME280;6016;41.928;25.556;2023-06-01T03:11:12;99168.22;;;17.82;77.86
11912;BME280;6016;41.928;25.556;2023-06-01T03:13:38;99035.06;;;17.06;77.74
11912;BME280;6016;41.928;25.556;2023-06-01T03:16:05;99167.00;;;17.85;78.18
11912;BME280;6016;41.928;25.556;2023-06-01T03:18:32;99148.81;;;17.58;78.47
11912;BME280;6016;41.928;25.556;2023-06-01T03:20:59;99062.00;;;17.11;78.61
11912;BME280;6016;41.928;25.556;2023-06-01T03:23:27;99182.91;;;17.93;78.46
11912;BME280;6016;41.928;25.556;2023-06-01T03:25:55;99187.97;;;17.88;78.83
11912;BME280;6016;41.928;25.556;2023-06-01T03:28:23;99133.25;;;17.32;79.49
11912;BME280;6016;41.928;25.556;2023-06-01T03:30:50;99197.44;;;17.76;79.63
11912;BME280;6016;41.928;25.556;2023-06-01T03:33:17;99194.78;;;17.76;79.82
11912;BME280;6016;41.928;25.556;2023-06-01T03:35:44;99199.78;;;17.79;79.34
11912;BME280;6016;41.928;25.556;2023-06-01T03:38:11;98978.31;;;16.52;79.87
11912;BME280;6016;41.928;25.556;2023-06-01T03:40:38;99193.78;;;17.92;79.27
11912;BME280;6016;41.928;25.556;2023-06-01T03:43:04;99191.19;;;17.98;79.07
11912;BME280;6016;41.928;25.556;2023-06-01T03:45:33;99194.31;;;18.02;79.02
11912;BME280;6016;41.928;25.556;2023-06-01T03:48:00;99199.78;;;18.09;78.57
11912;BME280;6016;41.928;25.556;2023-06-01T03:50:26;98948.31;;;16.58;78.91
11912;BME280;6016;41.928;25.556;2023-06-01T03:52:53;99198.44;;;18.20;79.20
11912;BME280;6016;41.928;25.556;2023-06-01T03:55:20;99159.91;;;17.92;78.20
11912;BME280;6016;41.928;25.556;2023-06-01T03:57:48;99203.69;;;18.28;77.70
11912;BME280;6016;41.928;25.556;2023-06-01T04:00:15;99159.53;;;17.95;78.01
11912;BME280;6016;41.928;25.556;2023-06-01T04:02:48;99188.72;;;18.12;78.11
11912;BME280;6016;41.928;25.556;2023-06-01T04:05:17;99051.44;;;17.33;77.69
11912;BME280;6016;41.928;25.556;2023-06-01T04:07:44;99171.31;;;18.16;77.53
11912;BME280;6016;41.928;25.556;2023-06-01T04:10:12;99134.81;;;17.86;77.93
11912;BME280;6016;41.928;25.556;2023-06-01T04:12:40;99125.59;;;17.89;78.59
11912;BME280;6016;41.928;25.556;2023-06-01T04:15:09;99204.22;;;18.38;78.59
11912;BME280;6016;41.928;25.556;2023-06-01T04:17:36;99213.72;;;18.41;79.01
11912;BME280;6016;41.928;25.556;2023-06-01T04:20:07;99211.28;;;18.46;79.31
11912;BME280;6016;41.928;25.556;2023-06-01T04:22:35;99155.31;;;18.16;79.33
11912;BME280;6016;41.928;25.556;2023-06-01T04:25:02;99213.22;;;18.52;79.47
11912;BME280;6016;41.928;25.556;2023-06-01T04:27:28;99206.03;;;18.53;78.75
11912;BME280;6016;41.928;25.556;2023-06-01T04:29:55;99207.28;;;18.57;78.42
11912;BME280;6016;41.928;25.556;2023-06-01T04:32:24;99188.53;;;18.50;77.88
11912;BME280;6016;41.928;25.556;2023-06-01T04:34:51;99211.31;;;18.68;78.26
11912;BME280;6016;41.928;25.556;2023-06-01T04:37:19;99210.38;;;18.76;77.25
11912;BME280;6016;41.928;25.556;2023-06-01T04:39:46;99213.75;;;18.84;77.11
11912;BME280;6016;41.928;25.556;2023-06-01T04:42:15;99215.66;;;18.91;77.31
11912;BME280;6016;41.928;25.556;2023-06-01T04:44:44;99204.97;;;18.91;77.20
11912;BME280;6016;41.928;25.556;2023-06-01T04:47:15;99217.56;;;18.97;78.13
11912;BME280;6016;41.928;25.556;2023-06-01T04:49:42;99222.38;;;19.02;76.92
11912;BME280;6016;41.928;25.556;2023-06-01T04:52:09;99215.44;;;19.07;76.49
11912;BME280;6016;41.928;25.556;2023-06-01T04:54:39;99144.25;;;18.63;76.84
11912;BME280;6016;41.928;25.556;2023-06-01T04:57:06;99105.03;;;18.41;76.25
11912;BME280;6016;41.928;25.556;2023-06-01T04:59:33;99219.41;;;19.18;75.86
11912;BME280;6016;41.928;25.556;2023-06-01T05:02:00;99225.03;;;19.23;76.31
11912;BME280;6016;41.928;25.556;2023-06-01T05:04:27;99226.91;;;19.30;76.91
11912;BME280;6016;41.928;25.556;2023-06-01T05:06:54;99230.44;;;19.30;77.28
11912;BME280;6016;41.928;25.556;2023-06-01T05:09:20;99223.84;;;19.33;76.95
11912;BME280;6016;41.928;25.556;2023-06-01T05:11:49;99228.44;;;19.39;77.09
11912;BME280;6016;41.928;25.556;2023-06-01T05:14:15;99184.81;;;19.10;77.72
11912;BME280;6016;41.928;25.556;2023-06-01T05:16:43;99154.91;;;19.00;77.55
11912;BME280;6016;41.928;25.556;2023-06-01T05:19:10;99230.31;;;19.45;77.88
11912;BME280;6016;41.928;25.556;2023-06-01T05:21:38;99234.22;;;19.43;77.26
11912;BME280;6016;41.928;25.556;2023-06-01T05:24:06;99236.09;;;19.49;76.77
11912;BME280;6016;41.928;25.556;2023-06-01T05:26:33;99234.50;;;19.54;77.49
11912;BME280;6016;41.928;25.556;2023-06-01T05:29:01;99234.94;;;19.58;77.86
11912;BME280;6016;41.928;25.556;2023-06-01T05:31:29;99191.38;;;19.36;77.53
11912;BME280;6016;41.928;25.556;2023-06-01T05:33:56;99242.44;;;19.70;77.50
11912;BME280;6016;41.928;25.556;2023-06-01T05:36:23;99108.94;;;18.89;77.70
11912;BME280;6016;41.928;25.556;2023-06-01T05:38:49;99238.16;;;19.75;77.83
11912;BME280;6016;41.928;25.556;2023-06-01T05:41:16;98940.00;;;17.86;78.03
11912;BME280;6016;41.928;25.556;2023-06-01T05:43:43;99244.94;;;19.78;77.79
11912;BME280;6016;41.928;25.556;2023-06-01T05:46:11;99242.25;;;19.78;78.12
11912;BME280;6016;41.928;25.556;2023-06-01T05:48:38;99244.56;;;19.81;78.01
11912;BME280;6016;41.928;25.556;2023-06-01T05:51:05;99216.94;;;19.74;78.02
11912;BME280;6016;41.928;25.556;2023-06-01T05:53:31;99210.94;;;19.72;77.48
11912;BME280;6016;41.928;25.556;2023-06-01T05:55:58;99239.97;;;20.03;77.52
11912;BME280;6016;41.928;25.556;2023-06-01T05:58:25;99105.84;;;19.14;77.54
11912;BME280;6016;41.928;25.556;2023-06-01T06:00:52;99239.38;;;20.08;77.20
11912;BME280;6016;41.928;25.556;2023-06-01T06:03:20;99238.81;;;20.19;77.02
11912;BME280;6016;41.928;25.556;2023-06-01T06:05:48;98678.88;;;16.69;76.46
11912;BME280;6016;41.928;25.556;2023-06-01T06:08:15;99245.03;;;20.27;76.90
11912;BME280;6016;41.928;25.556;2023-06-01T06:10:41;99222.75;;;20.19;76.79
11912;BME280;6016;41.928;25.556;2023-06-01T06:13:08;99208.53;;;20.19;76.35
11912;BME280;6016;41.928;25.556;2023-06-01T06:15:35;99242.41;;;20.47;76.42
11912;BME280;6016;41.928;25.556;2023-06-01T06:18:02;99248.81;;;20.52;76.61
11912;BME280;6016;41.928;25.556;2023-06-01T06:20:30;99222.00;;;20.46;75.64
11912;BME280;6016;41.928;25.556;2023-06-01T06:22:57;99243.09;;;20.62;75.73
11912;BME280;6016;41.928;25.556;2023-06-01T06:25:25;99243.53;;;20.73;75.90
11912;BME280;6016;41.928;25.556;2023-06-01T06:27:51;99250.13;;;20.63;75.93
11912;BME280;6016;41.928;25.556;2023-06-01T06:30:18;99241.31;;;20.83;76.38
11912;BME280;6016;41.928;25.556;2023-06-01T06:32:45;99197.53;;;20.56;75.79
11912;BME280;6016;41.928;25.556;2023-06-01T06:35:12;99242.59;;;20.94;74.28
11912;BME280;6016;41.928;25.556;2023-06-01T06:37:40;99244.63;;;20.92;75.13
11912;BME280;6016;41.928;25.556;2023-06-01T06:40:09;99160.63;;;20.51;74.37
11912;BME280;6016;41.928;25.556;2023-06-01T06:42:36;99237.22;;;21.07;75.48
11912;BME280;6016;41.928;25.556;2023-06-01T06:45:04;99241.56;;;21.22;76.16
11912;BME280;6016;41.928;25.556;2023-06-01T06:47:31;99184.19;;;20.83;74.88
11912;BME280;6016;41.928;25.556;2023-06-01T06:49:58;99237.66;;;21.31;74.22
11912;BME280;6016;41.928;25.556;2023-06-01T06:52:25;99238.69;;;21.30;73.37
11912;BME280;6016;41.928;25.556;2023-06-01T06:54:53;99229.38;;;21.33;73.20
11912;BME280;6016;41.928;25.556;2023-06-01T06:57:20;99239.28;;;21.46;73.17
11912;BME280;6016;41.928;25.556;2023-06-01T06:59:46;99130.75;;;20.88;73.55
11912;BME280;6016;41.928;25.556;2023-06-01T07:02:13;99249.41;;;21.64;72.58
11912;BME280;6016;41.928;25.556;2023-06-01T07:04:40;99141.91;;;20.98;73.08
11912;BME280;6016;41.928;25.556;2023-06-01T07:07:07;99166.88;;;21.26;71.77
11912;BME280;6016;41.928;25.556;2023-06-01T07:09:34;99174.06;;;21.25;72.24
11912;BME280;6016;41.928;25.556;2023-06-01T07:12:02;99107.88;;;21.12;73.33
11912;BME280;6016;41.928;25.556;2023-06-01T07:14:31;99230.31;;;21.99;72.99
11912;BME280;6016;41.928;25.556;2023-06-01T07:16:58;99103.09;;;21.14;72.35
11912;BME280;6016;41.928;25.556;2023-06-01T07:19:25;99228.19;;;22.22;73.08
11912;BME280;6016;41.928;25.556;2023-06-01T07:21:58;99226.50;;;22.34;72.20
11912;BME280;6016;41.928;25.556;2023-06-01T07:24:25;99186.69;;;22.11;70.92
11912;BME280;6016;41.928;25.556;2023-06-01T07:26:53;99227.63;;;22.58;71.89
11912;BME280;6016;41.928;25.556;2023-06-01T07:29:22;99231.69;;;22.74;71.34
11912;BME280;6016;41.928;25.556;2023-06-01T07:31:50;99174.50;;;22.47;70.88
11912;BME280;6016;41.928;25.556;2023-06-01T07:34:17;99192.13;;;22.82;70.63
11912;BME280;6016;41.928;25.556;2023-06-01T07:36:45;99217.72;;;23.16;68.40
11912;BME280;6016;41.928;25.556;2023-06-01T07:39:12;99237.44;;;23.61;69.13
11912;BME280;6016;41.928;25.556;2023-06-01T07:41:40;99231.56;;;23.89;66.03
11912;BME280;6016;41.928;25.556;2023-06-01T07:44:07;99235.41;;;24.19;64.43
11912;BME280;6016;41.928;25.556;2023-06-01T07:46:36;99240.22;;;24.48;61.28
11912;BME280;6016;41.928;25.556;2023-06-01T07:49:02;99236.19;;;24.69;60.16
11912;BME280;6016;41.928;25.556;2023-06-01T07:51:29;99239.91;;;24.86;61.98
11912;BME280;6016;41.928;25.556;2023-06-01T07:53:56;99240.81;;;25.11;60.60
11912;BME280;6016;41.928;25.556;2023-06-01T07:56:25;99226.75;;;25.45;60.55
11912;BME280;6016;41.928;25.556;2023-06-01T07:58:53;99191.28;;;25.53;60.11
11912;BME280;6016;41.928;25.556;2023-06-01T08:01:20;99207.81;;;25.80;56.75
11912;BME280;6016;41.928;25.556;2023-06-01T08:03:49;99220.41;;;25.87;56.19
11912;BME280;6016;41.928;25.556;2023-06-01T08:06:16;99205.84;;;25.52;57.83
11912;BME280;6016;41.928;25.556;2023-06-01T08:08:43;99141.16;;;25.09;57.40
11912;BME280;6016;41.928;25.556;2023-06-01T08:11:11;99223.34;;;25.61;59.14
11912;BME280;6016;41.928;25.556;2023-06-01T08:13:38;99062.94;;;24.55;58.44
11912;BME280;6016;41.928;25.556;2023-06-01T08:16:06;99217.00;;;25.43;59.08
11912;BME280;6016;41.928;25.556;2023-06-01T08:18:33;99219.22;;;25.35;59.97
11912;BME280;6016;41.928;25.556;2023-06-01T08:21:02;99215.00;;;25.39;59.68
11912;BME280;6016;41.928;25.556;2023-06-01T08:23:29;99200.16;;;25.06;60.65
11912;BME280;6016;41.928;25.556;2023-06-01T08:25:56;99212.03;;;25.40;59.09
11912;BME280;6016;41.928;25.556;2023-06-01T08:28:23;99031.22;;;24.26;57.81
11912;BME280;6016;41.928;25.556;2023-06-01T08:30:50;99223.25;;;25.56;56.99
11912;BME280;6016;41.928;25.556;2023-06-01T08:33:17;99188.84;;;25.51;57.61
11912;BME280;6016;41.928;25.556;2023-06-01T08:35:43;99215.47;;;25.72;56.68
11912;BME280;6016;41.928;25.556;2023-06-01T08:38:12;99100.44;;;25.11;56.39
11912;BME280;6016;41.928;25.556;2023-06-01T08:40:38;99129.50;;;25.33;56.00
11912;BME280;6016;41.928;25.556;2023-06-01T08:43:12;99202.97;;;25.94;55.32
11912;BME280;6016;41.928;25.556;2023-06-01T08:45:43;99159.66;;;25.77;56.62
11912;BME280;6016;41.928;25.556;2023-06-01T08:48:13;99142.06;;;25.63;55.50
11912;BME280;6016;41.928;25.556;2023-06-01T08:50:41;99176.22;;;25.81;55.19
11912;BME280;6016;41.928;25.556;2023-06-01T08:53:08;99197.81;;;25.93;53.02
11912;BME280;6016;41.928;25.556;2023-06-01T08:55:37;99162.94;;;25.79;54.15
11912;BME280;6016;41.928;25.556;2023-06-01T08:58:04;99200.94;;;26.13;54.08
11912;BME280;6016;41.928;25.556;2023-06-01T09:00:31;99193.06;;;26.24;52.41
11912;BME280;6016;41.928;25.556;2023-06-01T09:02:59;99121.19;;;25.87;53.24
11912;BME280;6016;41.928;25.556;2023-06-01T09:05:26;99191.22;;;26.42;53.89
11912;BME280;6016;41.928;25.556;2023-06-01T09:07:53;99191.13;;;26.36;50.15
11912;BME280;6016;41.928;25.556;2023-06-01T09:10:23;99190.63;;;26.39;51.19
11912;BME280;6016;41.928;25.556;2023-06-01T09:12:53;99190.50;;;26.34;48.19
11912;BME280;6016;41.928;25.556;2023-06-01T09:15:21;99152.59;;;26.17;47.04
11912;BME280;6016;41.928;25.556;2023-06-01T09:17:50;99105.38;;;26.08;51.92
11912;BME280;6016;41.928;25.556;2023-06-01T09:20:23;99173.28;;;26.69;49.42
11912;BME280;6016;41.928;25.556;2023-06-01T09:22:51;99192.19;;;26.99;47.85
11912;BME280;6016;41.928;25.556;2023-06-01T09:25:24;99172.41;;;26.81;48.48
11912;BME280;6016;41.928;25.556;2023-06-01T09:27:54;99187.25;;;26.61;44.51
11912;BME280;6016;41.928;25.556;2023-06-01T09:30:22;99129.16;;;26.35;44.66
11912;BME280;6016;41.928;25.556;2023-06-01T09:32:50;99143.19;;;26.66;46.53
11912;BME280;6016;41.928;25.556;2023-06-01T09:35:37;99176.03;;;27.38;51.86
11912;BME280;6016;41.928;25.556;2023-06-01T09:38:04;99180.94;;;27.58;49.35
11912;BME280;6016;41.928;25.556;2023-06-01T09:40:32;99160.13;;;27.64;41.52
11912;BME280;6016;41.928;25.556;2023-06-01T09:43:01;99152.38;;;27.73;46.07
11912;BME280;6016;41.928;25.556;2023-06-01T09:45:30;99165.69;;;27.97;46.56
11912;BME280;6016;41.928;25.556;2023-06-01T09:48:16;99174.06;;;28.17;42.83
11912;BME280;6016;41.928;25.556;2023-06-01T09:50:43;99176.66;;;28.07;45.10
11912;BME280;6016;41.928;25.556;2023-06-01T09:53:10;99120.06;;;27.49;37.38
11912;BME280;6016;41.928;25.556;2023-06-01T09:55:56;99143.63;;;27.48;39.55
11912;BME280;6016;41.928;25.556;2023-06-01T09:58:25;99096.78;;;27.08;40.85
11912;BME280;6016;41.928;25.556;2023-06-01T10:00:52;99163.59;;;27.42;42.47
11912;BME280;6016;41.928;25.556;2023-06-01T10:03:20;99158.94;;;27.37;42.39
11912;BME280;6016;41.928;25.556;2023-06-01T10:05:48;99146.69;;;27.35;46.20
11912;BME280;6016;41.928;25.556;2023-06-01T10:08:17;99009.00;;;26.31;39.80
11912;BME280;6016;41.928;25.556;2023-06-01T10:10:45;99093.41;;;26.84;40.87
11912;BME280;6016;41.928;25.556;2023-06-01T10:13:13;99153.31;;;27.22;39.12
11912;BME280;6016;41.928;25.556;2023-06-01T10:15:41;99150.84;;;27.20;40.77
11912;BME280;6016;41.928;25.556;2023-06-01T10:18:08;99122.56;;;26.94;40.30
11912;BME280;6016;41.928;25.556;2023-06-01T10:20:36;99149.78;;;27.04;39.20
11912;BME280;6016;41.928;25.556;2023-06-01T10:23:04;98981.00;;;25.91;41.81
11912;BME280;6016;41.928;25.556;2023-06-01T10:25:35;99123.28;;;26.72;43.60
11912;BME280;6016;41.928;25.556;2023-06-01T10:28:05;99138.50;;;26.78;42.41
11912;BME280;6016;41.928;25.556;2023-06-01T10:30:33;99137.66;;;26.90;46.12
11912;BME280;6016;41.928;25.556;2023-06-01T10:33:02;99133.28;;;27.06;44.50
11912;BME280;6016;41.928;25.556;2023-06-01T10:36:02;99138.53;;;27.13;44.76
11912;BME280;6016;41.928;25.556;2023-06-01T10:38:29;99133.22;;;27.18;44.41
11912;BME280;6016;41.928;25.556;2023-06-01T10:41:28;99124.47;;;27.33;46.86
11912;BME280;6016;41.928;25.556;2023-06-01T10:43:56;99140.16;;;27.31;46.03
11912;BME280;6016;41.928;25.556;2023-06-01T10:46:37;99105.47;;;27.10;43.82
11912;BME280;6016;41.928;25.556;2023-06-01T10:49:06;99132.03;;;27.31;40.27
11912;BME280;6016;41.928;25.556;2023-06-01T10:51:33;99125.09;;;27.18;41.81
11912;BME280;6016;41.928;25.556;2023-06-01T10:54:26;99118.78;;;26.95;43.14
11912;BME280;6016;41.928;25.556;2023-06-01T10:57:21;99122.28;;;26.78;44.35
11912;BME280;6016;41.928;25.556;2023-06-01T11:00:10;99112.47;;;26.89;44.16
11912;BME280;6016;41.928;25.556;2023-06-01T11:02:47;99080.59;;;26.79;41.75
11912;BME280;6016;41.928;25.556;2023-06-01T11:08:53;99110.00;;;27.05;43.63
11912;BME280;6016;41.928;25.556;2023-06-01T11:11:20;99091.69;;;27.12;43.50
11912;BME280;6016;41.928;25.556;2023-06-01T11:14:08;99056.19;;;26.91;44.23
11912;BME280;6016;41.928;25.556;2023-06-01T11:16:35;99070.72;;;27.24;45.91
11912;BME280;6016;41.928;25.556;2023-06-01T11:19:03;99098.06;;;27.45;41.82
11912;BME280;6016;41.928;25.556;2023-06-01T11:21:34;99099.38;;;27.43;43.07
11912;BME280;6016;41.928;25.556;2023-06-01T11:24:07;99076.25;;;27.35;45.05
11912;BME280;6016;41.928;25.556;2023-06-01T11:26:37;99093.19;;;27.64;41.08
11912;BME280;6016;41.928;25.556;2023-06-01T11:29:06;99086.50;;;27.72;43.56
11912;BME280;6016;41.928;25.556;2023-06-01T11:31:39;99075.09;;;27.70;41.83
11912;BME280;6016;41.928;25.556;2023-06-01T11:34:08;99083.94;;;27.60;45.50
11912;BME280;6016;41.928;25.556;2023-06-01T11:36:40;99054.28;;;27.31;42.20
11912;BME280;6016;41.928;25.556;2023-06-01T11:39:19;99006.63;;;26.91;44.51
11912;BME280;6016;41.928;25.556;2023-06-01T11:41:51;99008.41;;;26.85;43.41
11912;BME280;6016;41.928;25.556;2023-06-01T11:44:19;98980.97;;;26.76;43.44
11912;BME280;6016;41.928;25.556;2023-06-01T11:46:53;98976.56;;;26.87;43.16
11912;BME280;6016;41.928;25.556;2023-06-01T11:49:21;99050.19;;;27.29;43.14
11912;BME280;6016;41.928;25.556;2023-06-01T11:51:48;99049.50;;;27.61;44.24
11912;BME280;6016;41.928;25.556;2023-06-01T11:54:23;99051.25;;;27.72;42.14
11912;BME280;6016;41.928;25.556;2023-06-01T11:56:51;99044.59;;;27.58;44.96
11912;BME280;6016;41.928;25.556;2023-06-01T11:59:19;99005.34;;;27.38;45.61
11912;BME280;6016;41.928;25.556;2023-06-01T12:01:47;99028.50;;;27.73;44.52
11912;BME280;6016;41.928;25.556;2023-06-01T12:04:14;99010.09;;;27.75;44.65
11912;BME280;6016;41.928;25.556;2023-06-01T12:06:42;99010.38;;;27.79;45.16
11912;BME280;6016;41.928;25.556;2023-06-01T12:09:08;99004.56;;;27.65;45.26
11912;BME280;6016;41.928;25.556;2023-06-01T12:11:37;98940.13;;;26.95;45.11
11912;BME280;6016;41.928;25.556;2023-06-01T12:14:05;98946.66;;;26.99;42.69
11912;BME280;6016;41.928;25.556;2023-06-01T12:16:53;98968.06;;;27.23;45.79
11912;BME280;6016;41.928;25.556;2023-06-01T12:19:22;99001.81;;;27.15;44.05
11912;BME280;6016;41.928;25.556;2023-06-01T12:21:50;98999.22;;;27.03;43.45
11912;BME280;6016;41.928;25.556;2023-06-01T12:24:18;98905.72;;;26.34;44.57
11912;BME280;6016;41.928;25.556;2023-06-01T12:26:46;98885.00;;;26.22;43.12
11912;BME280;6016;41.928;25.556;2023-06-01T12:29:14;98964.50;;;26.78;44.19
11912;BME280;6016;41.928;25.556;2023-06-01T12:31:52;98985.25;;;26.89;45.22
11912;BME280;6016;41.928;25.556;2023-06-01T12:34:20;98989.03;;;26.71;44.18
11912;BME280;6016;41.928;25.556;2023-06-01T12:36:46;98984.50;;;26.77;42.74
11912;BME280;6016;41.928;25.556;2023-06-01T12:39:13;98983.91;;;26.92;42.74
11912;BME280;6016;41.928;25.556;2023-06-01T12:41:48;98974.41;;;27.12;43.89
11912;BME280;6016;41.928;25.556;2023-06-01T12:44:19;98862.47;;;26.56;45.75
11912;BME280;6016;41.928;25.556;2023-06-01T12:46:46;98965.88;;;27.47;44.98
11912;BME280;6016;41.928;25.556;2023-06-01T12:49:14;98939.94;;;27.29;43.28
11912;BME280;6016;41.928;25.556;2023-06-01T12:51:43;98831.81;;;26.73;43.79
11912;BME280;6016;41.928;25.556;2023-06-01T12:54:09;98843.09;;;26.87;42.44
11912;BME280;6016;41.928;25.556;2023-06-01T12:56:37;98960.94;;;27.66;42.11
11912;BME280;6016;41.928;25.556;2023-06-01T12:59:05;98953.28;;;27.36;46.37
11912;BME280;6016;41.928;25.556;2023-06-01T13:01:33;98960.03;;;27.33;45.51
11912;BME280;6016;41.928;25.556;2023-06-01T13:03:59;98837.53;;;26.76;43.54
11912;BME280;6016;41.928;25.556;2023-06-01T13:06:28;98859.38;;;26.69;43.14
11912;BME280;6016;41.928;25.556;2023-06-01T13:08:55;98941.41;;;27.37;42.33
11912;BME280;6016;41.928;25.556;2023-06-01T13:11:22;98916.84;;;27.21;42.02
11912;BME280;6016;41.928;25.556;2023-06-01T13:13:50;98936.03;;;27.42;42.04